Flight Track Log - Related Links

Times and Time Zones

All times are in EDT time to prevent confusion due to time zone crossing. See the JA-857A flight status page for this flight to view local times or setup timezone preferences in your user account.

Time Position Orientation Groundspeed Altitude Reporting Facility
EDT Latitude Longitude Course Direction KTS MPH feet Rate Location/Type
Sat 06:20:32 AM 43.8646 144.1268 239° Southwest  Level Estimated
Sat 06:21:32 AM 43.8346 144.0569 239° Southwest  Level Estimated
Sat 06:22:32 AM 43.8046 143.9871 239° Southwest  Level Estimated
Sat 06:23:32 AM 43.7745 143.9174 239° Southwest  Level Estimated
Sat 06:24:32 AM 43.7443 143.8478 239° Southwest  Level Estimated
Sat 06:25:32 AM 43.7142 143.7782 239° Southwest  Level Estimated
Sat 06:26:32 AM 43.6839 143.7087 239° Southwest  Level Estimated
Sat 06:27:32 AM 43.6537 143.6393 239° Southwest  Level Estimated
Sat 06:28:32 AM 43.6234 143.5699 239° Southwest  Level Estimated
Sat 06:29:32 AM 43.5930 143.5006 239° Southwest  Level Estimated
Sat 06:30:32 AM 43.5627 143.4314 239° Southwest  Level Estimated
Sat 06:31:32 AM 43.5322 143.3622 239° Southwest  Level Estimated
Sat 06:32:32 AM 43.5018 143.2931 239° Southwest  Level Estimated
Sat 06:33:32 AM 43.4712 143.2241 239° Southwest  Level Estimated
Sat 06:34:32 AM 43.4407 143.1552 239° Southwest  Level Estimated
Sat 06:35:32 AM 43.4101 143.0863 239° Southwest  Level Estimated
Sat 06:36:32 AM 43.3795 143.0175 238° Southwest  Level Estimated
Sat 06:37:32 AM 43.3488 142.9488 238° Southwest  Level Estimated
Sat 06:38:32 AM 43.3181 142.8801 238° Southwest  Level Estimated
Sat 06:39:32 AM 43.2873 142.8115 238° Southwest  Level Estimated
Sat 06:40:32 AM 43.2565 142.7430 238° Southwest  Level Estimated
Sat 06:41:32 AM 43.2257 142.6745 238° Southwest  Level Estimated
Sat 06:42:32 AM 43.1948 142.6062 238° Southwest  Level Estimated
Sat 06:43:32 AM 43.1639 142.5378 238° Southwest  Level Estimated
Sat 06:44:32 AM 43.1329 142.4696 238° Southwest  Level Estimated
Sat 06:45:32 AM 43.1019 142.4014 238° Southwest  Level Estimated
Sat 06:46:32 AM 43.0709 142.3333 238° Southwest  Level Estimated
Sat 06:47:32 AM 43.0398 142.2653 238° Southwest  Level Estimated
Sat 06:48:32 AM 43.0087 142.1973 238° Southwest  Level Estimated
Sat 06:49:32 AM 42.9775 142.1294 238° Southwest  Level Estimated
Sat 06:50:32 AM 42.9463 142.0616 238° Southwest  Level Estimated
Sat 06:51:32 AM 42.9151 141.9938 238° Southwest  Level Estimated
Sat 06:52:32 AM 42.8838 141.9261 238° Southwest  Level Estimated
Sat 06:53:32 AM 42.8525 141.8585 238° Southwest  Level Estimated
Sat 06:54:32 AM 42.8211 141.7909 238° Southwest  Level Estimated
Sat 06:55:32 AM 42.7897 141.7234 238° Southwest  Level Estimated
Sat 06:56:32 AM 42.7583 141.6560 58° Northeast  Level Estimated
Sat 06:57:32 AM 42.7897 141.7234 238° Southwest  Level Estimated
Sat 06:58:32 AM 42.7583 141.6560 58° Northeast  Level Estimated
Sat 06:59:32 AM 42.7897 141.7234 58° Northeast  Level Estimated

Login

Don't have an account? Register now (free) for customized features, flight alerts, and more!